Time;durP1;ratioP1;P1;durP2;ratioP2;P2;SDS_P1;SDS_P2;PMS_P1;PMS_P2;Temp;Humidity;BMP_temperature;BMP_pressure;BME280_temperature;BME280_humidity;BME280_pressure;Samples;Min_cycle;Max_cycle;Signal;HPM_P1;HPM_P2
2021/04/08 00:00:47;;;;;;;9.80;2.38;;;;;;;7.04;77.95;101705.06;5013615;28;20134;-53
2021/04/08 00:03:13;;;;;;;11.20;2.00;;;;;;;6.97;78.35;101707.38;5015355;28;20042;-49
2021/04/08 00:05:40;;;;;;;8.43;4.13;;;;;;;6.94;78.45;101704.38;5001471;28;20128;-50
2021/04/08 00:08:06;;;;;;;7.25;2.17;;;;;;;6.90;78.22;101689.59;5014818;28;20115;-50
2021/04/08 00:10:32;;;;;;;7.28;1.92;;;;;;;6.90;77.99;101690.41;5021712;28;20045;-48
2021/04/08 00:12:59;;;;;;;8.77;2.70;;;;;;;6.92;77.99;101695.59;5035227;28;20457;-47
2021/04/08 00:15:26;;;;;;;12.38;2.65;;;;;;;6.88;77.97;101691.84;5018036;28;20045;-50
2021/04/08 00:17:52;;;;;;;4.40;2.00;;;;;;;6.83;78.33;101691.91;5014058;28;20396;-55
2021/04/08 00:20:20;;;;;;;9.48;2.55;;;;;;;6.79;78.48;101690.84;5029048;28;20100;-47
2021/04/08 00:22:47;;;;;;;8.13;2.50;;;;;;;6.77;78.58;101690.34;5007396;28;20380;-52
2021/04/08 00:25:15;;;;;;;6.00;2.35;;;;;;;6.78;78.30;101680.97;5014565;28;20703;-49
2021/04/08 00:27:42;;;;;;;7.35;2.17;;;;;;;6.77;78.62;101684.84;4999151;28;20050;-51
2021/04/08 00:30:10;;;;;;;9.27;2.97;;;;;;;6.73;78.50;101679.91;5033580;28;20053;-51
2021/04/08 00:32:38;;;;;;;10.43;2.60;;;;;;;6.73;78.48;101684.59;5016609;28;20050;-48
2021/04/08 00:35:06;;;;;;;12.45;2.95;;;;;;;6.71;78.96;101667.56;5031884;28;20045;-48
2021/04/08 00:37:32;;;;;;;9.23;2.45;;;;;;;6.71;78.70;101667.56;5022055;28;20117;-49
2021/04/08 00:39:59;;;;;;;8.63;2.88;;;;;;;6.71;78.33;101664.81;5012700;28;20499;-47
2021/04/08 00:42:26;;;;;;;8.82;2.75;;;;;;;6.69;78.61;101659.63;5011747;28;20084;-52
2021/04/08 00:44:52;;;;;;;6.38;1.95;;;;;;;6.69;78.84;101665.13;5013985;28;20373;-47
2021/04/08 00:47:19;;;;;;;8.10;2.42;;;;;;;6.70;78.91;101665.91;5015837;28;20092;-49
2021/04/08 00:49:46;;;;;;;7.45;3.13;;;;;;;6.69;78.56;101667.06;5018081;28;20073;-48
2021/04/08 00:52:12;;;;;;;11.05;2.60;;;;;;;6.66;78.58;101656.63;5025040;28;20045;-48
2021/04/08 00:54:39;;;;;;;6.50;2.70;;;;;;;6.63;78.67;101646.22;5013958;28;20042;-50
2021/04/08 00:57:07;;;;;;;9.77;1.80;;;;;;;6.60;78.36;101649.56;5013896;28;20064;-50
2021/04/08 00:59:33;;;;;;;6.68;2.95;;;;;;;6.55;78.62;101652.38;4999664;28;20050;-51
2021/04/08 01:02:00;;;;;;;11.20;2.33;;;;;;;6.50;79.06;101642.28;5024118;28;20133;-49
2021/04/08 01:04:26;;;;;;;2.92;1.92;;;;;;;6.49;78.82;101637.88;5022327;28;20474;-48
2021/04/08 01:06:53;;;;;;;7.80;2.00;;;;;;;6.47;78.56;101642.03;5012364;28;20041;-52
2021/04/08 01:09:19;;;;;;;9.32;2.03;;;;;;;6.46;78.37;101641.22;5013758;28;20046;-48
2021/04/08 01:11:46;;;;;;;6.70;2.05;;;;;;;6.48;78.32;101638.19;4995986;28;20050;-50
2021/04/08 01:14:13;;;;;;;9.13;2.28;;;;;;;6.46;78.36;101635.72;5013599;28;20431;-48
2021/04/08 01:17:12;;;;;;;8.98;2.42;;;;;;;6.45;78.39;101639.59;5026666;28;20038;-49
2021/04/08 01:20:11;;;;;;;8.55;1.98;;;;;;;6.38;79.11;101636.38;4945179;28;20042;-47
2021/04/08 01:23:02;;;;;;;6.65;2.60;;;;;;;6.38;78.46;101630.09;5016798;28;20407;-48
2021/04/08 01:26:07;;;;;;;6.32;1.92;;;;;;;6.35;79.29;101630.66;5010262;28;20578;-50
2021/04/08 01:28:40;;;;;;;9.25;2.13;;;;;;;6.38;78.15;101630.88;5013247;28;20492;-46
2021/04/08 01:31:12;;;;;;;6.32;1.90;;;;;;;6.39;78.26;101627.03;5020721;28;20046;-45
2021/04/08 01:33:45;;;;;;;17.75;2.53;;;;;;;6.38;78.55;101622.63;5030911;28;20058;-47
2021/04/08 01:36:22;;;;;;;7.43;2.25;;;;;;;6.40;78.83;101627.84;5026130;28;20041;-45
2021/04/08 01:38:54;;;;;;;9.20;1.98;;;;;;;6.39;78.23;101624.28;4993621;28;20042;-48
2021/04/08 01:41:23;;;;;;;11.70;2.42;;;;;;;6.39;78.36;101618.78;4997096;28;20456;-47
2021/04/08 01:43:54;;;;;;;11.88;2.17;;;;;;;6.38;78.29;101608.88;5031883;28;20062;-49
2021/04/08 01:46:22;;;;;;;6.68;1.55;;;;;;;6.40;78.43;101614.91;4993750;28;20475;-51
2021/04/08 01:48:51;;;;;;;6.63;2.10;;;;;;;6.38;78.44;101611.63;5010144;28;20054;-47
2021/04/08 01:51:20;;;;;;;8.23;1.60;;;;;;;6.37;78.63;101611.94;4992445;28;20093;-47
2021/04/08 01:53:49;;;;;;;6.63;1.80;;;;;;;6.37;78.56;101604.50;5014137;28;20507;-48
2021/04/08 01:56:22;;;;;;;5.97;1.63;;;;;;;6.32;79.04;101612.81;5012454;28;20379;-46
2021/04/08 01:58:49;;;;;;;6.25;1.80;;;;;;;6.31;78.81;101618.59;5017720;28;20477;-48
2021/04/08 02:01:18;;;;;;;10.30;1.95;;;;;;;6.30;78.62;101612.28;5029852;28;20060;-48
2021/04/08 02:03:45;;;;;;;9.60;1.90;;;;;;;6.31;78.48;101605.69;5013409;28;20045;-46
2021/04/08 02:06:13;;;;;;;5.45;1.77;;;;;;;6.26;78.71;101605.75;4995582;28;20038;-49
2021/04/08 02:08:44;;;;;;;6.20;1.80;;;;;;;6.30;78.38;101604.03;5015422;28;20067;-50
2021/04/08 02:11:13;;;;;;;3.40;1.50;;;;;;;6.29;78.31;101607.91;5028805;28;20048;-46
2021/04/08 02:13:44;;;;;;;5.25;1.67;;;;;;;6.26;78.60;101608.50;5031159;28;20046;-48
2021/04/08 02:16:12;;;;;;;7.65;1.50;;;;;;;6.25;78.79;101598.59;4995921;28;20570;-47
2021/04/08 02:18:41;;;;;;;4.47;1.77;;;;;;;6.27;78.76;101604.66;5011465;28;20094;-47
2021/04/08 02:21:08;;;;;;;3.90;1.65;;;;;;;6.27;78.56;101598.31;5011373;28;20101;-47
2021/04/08 02:23:42;;;;;;;10.98;2.67;;;;;;;6.27;78.83;101595.56;5008204;28;20053;-49
2021/04/08 02:26:12;;;;;;;5.95;1.40;;;;;;;6.27;78.61;101595.56;5021144;28;20044;-48
2021/04/08 02:28:40;;;;;;;8.88;1.50;;;;;;;6.29;78.40;101596.91;5014625;28;20077;-49
2021/04/08 02:31:08;;;;;;;10.77;2.33;;;;;;;6.28;78.26;101584.28;5021354;28;20116;-46
2021/04/08 02:33:34;;;;;;;6.55;1.50;;;;;;;6.27;78.04;101582.66;4994064;28;20081;-50
2021/04/08 02:36:01;;;;;;;8.13;2.53;;;;;;;6.26;78.74;101581.00;5025167;28;20081;-45
2021/04/08 02:38:35;;;;;;;5.28;2.03;;;;;;;6.25;78.36;101573.84;5010246;28;20108;-50
2021/04/08 02:41:05;;;;;;;5.22;1.48;;;;;;;6.22;78.50;101582.72;5028222;28;20483;-49
2021/04/08 02:43:32;;;;;;;8.38;1.85;;;;;;;6.24;77.97;101571.41;4995415;28;20066;-47
2021/04/08 02:45:59;;;;;;;5.28;1.70;;;;;;;6.22;78.40;101568.16;5021803;28;20050;-50
2021/04/08 02:48:26;;;;;;;7.45;2.92;;;;;;;6.23;78.09;101559.59;4996618;28;20408;-47
2021/04/08 02:50:54;;;;;;;9.02;1.75;;;;;;;6.20;78.18;101565.69;5031070;28;20042;-48
2021/04/08 02:54:05;;;;;;;3.90;1.38;;;;;;;6.16;78.54;101559.16;5014309;28;20046;-46
2021/04/08 02:56:46;;;;;;;3.72;1.83;;;;;;;6.12;78.56;101547.91;4946946;28;20075;-48
2021/04/08 02:59:26;;;;;;;8.52;1.80;;;;;;;6.10;78.52;101555.66;5018722;28;20066;-50
2021/04/08 03:02:05;;;;;;;7.75;1.63;;;;;;;6.11;78.30;101550.97;5025928;28;20067;-46
2021/04/08 03:04:37;;;;;;;7.47;1.83;;;;;;;6.13;78.64;101543.25;5029887;28;20418;-46
2021/04/08 03:07:04;;;;;;;3.13;1.33;;;;;;;6.13;78.38;101540.50;5016537;28;20080;-50
2021/04/08 03:09:40;;;;;;;8.70;1.25;;;;;;;6.08;78.46;101535.06;5019339;28;20326;-49
2021/04/08 03:12:13;;;;;;;7.78;2.63;;;;;;;6.09;78.53;101536.69;5011998;28;20085;-46
2021/04/08 03:14:42;;;;;;;9.00;1.50;;;;;;;6.10;78.27;101532.84;5020147;28;20073;-48
2021/04/08 03:17:13;;;;;;;9.90;1.80;;;;;;;6.09;78.27;101531.19;5012543;28;20069;-46
2021/04/08 03:19:40;;;;;;;8.38;1.45;;;;;;;6.08;78.57;101526.81;5018109;28;20415;-47
2021/04/08 03:22:09;;;;;;;5.25;1.95;;;;;;;6.08;78.30;101527.66;5011773;28;20065;-45
2021/04/08 03:24:38;;;;;;;9.90;1.40;;;;;;;6.06;78.51;101531.81;4993690;28;20080;-47
2021/04/08 03:27:06;;;;;;;4.78;1.30;;;;;;;6.03;78.77;101524.16;5015594;28;20042;-49
2021/04/08 03:29:34;;;;;;;3.65;1.27;;;;;;;6.04;78.44;101520.28;5027305;28;20059;-47
2021/04/08 03:32:01;;;;;;;8.25;1.85;;;;;;;6.05;78.17;101517.25;5011473;28;20108;-45
2021/04/08 03:34:28;;;;;;;4.72;1.52;;;;;;;6.09;78.44;101526.53;5025515;28;20144;-48
2021/04/08 03:36:54;;;;;;;8.25;1.38;;;;;;;6.10;78.25;101508.09;5015782;28;20097;-46
2021/04/08 03:39:21;;;;;;;8.48;1.60;;;;;;;6.06;78.31;101507.88;5018271;28;20069;-46
2021/04/08 03:41:49;;;;;;;6.38;2.03;;;;;;;6.06;78.24;101505.13;5034975;28;20041;-45
2021/04/08 03:44:16;;;;;;;6.40;2.45;;;;;;;6.06;78.49;101504.31;5035346;28;20069;-46
2021/04/08 03:46:46;;;;;;;8.15;2.20;;;;;;;6.01;78.67;101501.66;5023150;28;20495;-47
2021/04/08 03:49:15;;;;;;;3.08;1.48;;;;;;;6.00;78.63;101506.31;5033732;28;20415;-47
2021/04/08 03:51:44;;;;;;;6.78;1.52;;;;;;;6.02;78.64;101500.50;5021452;28;20034;-46
2021/04/08 03:54:13;;;;;;;5.22;1.95;;;;;;;6.00;79.03;101505.50;4997850;28;20050;-47
2021/04/08 03:56:43;;;;;;;3.63;1.40;;;;;;;6.03;78.48;101510.41;5023965;28;20069;-46
2021/04/08 03:59:11;;;;;;;6.15;1.58;;;;;;;6.08;78.82;101502.91;5014736;28;20372;-46
2021/04/08 04:01:38;;;;;;;5.10;1.80;;;;;;;6.13;78.69;101510.25;5025216;28;20446;-45
2021/04/08 04:04:05;;;;;;;6.70;2.72;;;;;;;6.14;78.30;101500.91;5034499;28;20056;-47
2021/04/08 04:06:34;;;;;;;6.55;1.33;;;;;;;6.14;78.65;101500.91;5032546;28;20545;-48
2021/04/08 04:09:02;;;;;;;8.15;1.77;;;;;;;6.12;78.83;101498.44;5021694;28;20037;-46
2021/04/08 04:11:31;;;;;;;5.68;1.60;;;;;;;6.09;78.50;101493.53;5014743;28;20136;-45
2021/04/08 04:14:00;;;;;;;2.92;1.38;;;;;;;6.10;78.46;101486.94;5015524;28;20057;-45
2021/04/08 04:16:29;;;;;;;5.50;1.98;;;;;;;6.09;78.70;101487.22;5014470;28;20046;-47
2021/04/08 04:18:56;;;;;;;5.82;1.40;;;;;;;6.06;78.46;101488.63;5024157;28;20049;-47
2021/04/08 04:21:22;;;;;;;8.98;2.42;;;;;;;6.08;78.50;101480.09;5033472;28;20125;-49
2021/04/08 04:23:49;;;;;;;7.28;1.40;;;;;;;6.06;78.79;101494.13;5017264;28;20141;-46
2021/04/08 04:26:15;;;;;;;6.63;1.70;;;;;;;6.03;78.58;101488.41;5013067;28;20476;-51
2021/04/08 04:28:42;;;;;;;6.43;1.67;;;;;;;6.06;78.52;101485.06;5032606;28;20084;-46
2021/04/08 04:31:08;;;;;;;10.38;1.45;;;;;;;6.06;78.53;101479.59;5024279;28;20041;-48
2021/04/08 04:33:36;;;;;;;9.05;1.55;;;;;;;6.03;78.78;101480.16;5034382;28;20491;-47
2021/04/08 04:36:03;;;;;;;6.82;1.85;;;;;;;6.01;79.01;101472.22;5016645;28;20487;-48
2021/04/08 04:38:29;;;;;;;5.03;1.50;;;;;;;6.01;78.57;101476.91;4998873;28;20105;-50
2021/04/08 04:40:56;;;;;;;9.85;1.45;;;;;;;5.99;78.63;101465.38;5016416;28;20133;-49
2021/04/08 04:43:22;;;;;;;6.35;1.30;;;;;;;5.98;79.13;101475.53;5014397;28;20053;-52
2021/04/08 04:45:48;;;;;;;2.97;1.10;;;;;;;5.96;78.82;101464.03;5031726;28;20553;-46
2021/04/08 04:48:14;;;;;;;7.47;2.00;;;;;;;5.95;78.87;101469.84;5016326;28;20058;-49
2021/04/08 04:50:41;;;;;;;3.25;1.60;;;;;;;5.97;78.52;101462.94;5027655;28;20049;-51
2021/04/08 04:53:07;;;;;;;3.75;1.23;;;;;;;5.95;78.99;101467.09;5014193;28;20045;-49
2021/04/08 04:55:33;;;;;;;10.30;2.35;;;;;;;5.97;78.61;101478.59;5013863;28;20155;-50
2021/04/08 04:58:00;;;;;;;6.43;1.42;;;;;;;5.98;78.96;101469.25;5013987;28;20054;-47
2021/04/08 05:00:26;;;;;;;5.05;1.30;;;;;;;5.98;79.08;101469.25;5014636;28;20129;-48
2021/04/08 05:02:52;;;;;;;10.27;1.80;;;;;;;5.98;79.08;101470.03;5014016;28;20088;-51
2021/04/08 05:05:19;;;;;;;9.35;2.58;;;;;;;5.96;78.88;101465.97;5029934;28;20049;-48
2021/04/08 05:07:45;;;;;;;8.63;1.63;;;;;;;5.95;78.95;101461.59;5027540;28;20057;-51
2021/04/08 05:10:12;;;;;;;9.00;1.83;;;;;;;5.95;78.81;101464.34;5032687;28;20042;-53
2021/04/08 05:12:38;;;;;;;8.63;1.20;;;;;;;5.96;78.48;101460.47;5025393;28;20061;-49
2021/04/08 05:15:06;;;;;;;6.18;1.15;;;;;;;5.95;78.42;101467.09;5033661;28;20099;-50
2021/04/08 05:17:33;;;;;;;6.18;1.98;;;;;;;5.94;79.09;101455.28;5013615;28;20045;-50
2021/04/08 05:20:00;;;;;;;13.77;2.83;;;;;;;5.95;78.51;101456.09;5012992;28;20045;-46
2021/04/08 05:22:26;;;;;;;11.88;3.45;;;;;;;5.91;78.56;101461.38;5015339;28;20037;-50
2021/04/08 05:24:53;;;;;;;4.45;1.30;;;;;;;5.93;78.95;101458.34;5018171;28;20149;-52
2021/04/08 05:27:19;;;;;;;4.07;1.33;;;;;;;5.90;79.04;101461.69;5025240;28;20499;-48
2021/04/08 05:29:45;;;;;;;4.47;1.20;;;;;;;5.89;78.72;101454.53;5030611;28;20064;-46
2021/04/08 05:32:12;;;;;;;6.93;1.50;;;;;;;5.92;78.78;101453.94;5013120;28;20045;-50
2021/04/08 05:34:38;;;;;;;6.65;1.48;;;;;;;5.92;79.01;101449.28;5014330;28;20169;-51
2021/04/08 05:37:05;;;;;;;9.68;1.58;;;;;;;5.90;78.65;101457.00;5012938;28;20085;-50
2021/04/08 05:39:31;;;;;;;4.97;1.30;;;;;;;5.89;78.84;101454.53;5017900;28;20128;-48
2021/04/08 05:41:58;;;;;;;5.00;1.73;;;;;;;5.86;78.96;101455.94;5031782;28;20108;-48
2021/04/08 05:44:25;;;;;;;4.00;1.67;;;;;;;5.82;79.24;101441.16;5022251;28;20084;-48
2021/04/08 05:46:51;;;;;;;2.85;1.13;;;;;;;5.85;78.85;101442.50;5013898;28;20033;-47
2021/04/08 05:49:17;;;;;;;7.55;1.45;;;;;;;5.83;78.67;101444.69;5021557;28;20124;-49
2021/04/08 05:51:44;;;;;;;5.38;1.10;;;;;;;5.83;79.06;101439.19;5017710;28;20077;-51
2021/04/08 05:54:10;;;;;;;2.33;1.30;;;;;;;5.83;78.81;101433.69;5017145;28;20052;-45
2021/04/08 05:56:37;;;;;;;5.82;2.00;;;;;;;5.82;78.61;101437.56;4988282;28;20115;-50
2021/04/08 05:59:03;;;;;;;4.10;1.20;;;;;;;5.81;78.66;101428.50;5001627;28;20506;-51
2021/04/08 06:01:29;;;;;;;10.18;1.27;;;;;;;5.79;78.65;101425.25;5021430;28;20080;-50
2021/04/08 06:03:56;;;;;;;6.32;1.00;;;;;;;5.77;78.92;101429.41;5017516;28;20108;-48
2021/04/08 06:06:22;;;;;;;7.78;1.27;;;;;;;5.79;79.07;101421.69;5021424;28;20081;-51
2021/04/08 06:08:48;;;;;;;4.97;1.40;;;;;;;5.80;78.78;101439.81;5015729;28;20069;-48
2021/04/08 06:11:15;;;;;;;3.13;1.38;;;;;;;5.79;78.69;101427.16;5014369;28;20046;-50
2021/04/08 06:13:42;;;;;;;9.18;1.70;;;;;;;5.81;78.79;101430.44;5022874;28;20049;-53
2021/04/08 06:16:09;;;;;;;7.20;1.13;;;;;;;5.81;78.88;101436.75;5012125;28;20045;-51
2021/04/08 06:18:35;;;;;;;7.47;1.35;;;;;;;5.83;78.82;101428.19;5018855;28;20111;-50
2021/04/08 06:21:02;;;;;;;5.45;1.30;;;;;;;5.84;79.09;101425.16;5023582;28;20379;-49
2021/04/08 06:23:28;;;;;;;7.28;1.30;;;;;;;5.88;78.92;101419.91;5021602;28;20049;-47
2021/04/08 06:25:54;;;;;;;3.88;1.48;;;;;;;5.91;78.89;101419.31;5015924;28;20049;-47
2021/04/08 06:28:21;;;;;;;3.78;1.83;;;;;;;5.94;79.13;101426.97;5011105;28;20513;-51
2021/04/08 06:30:47;;;;;;;7.03;2.00;;;;;;;5.94;79.07;101418.72;5023087;28;20085;-48
2021/04/08 06:33:13;;;;;;;4.97;1.17;;;;;;;5.95;79.03;101415.69;4997922;28;20476;-48
2021/04/08 06:35:40;;;;;;;8.10;1.38;;;;;;;5.96;79.08;101413.75;5010992;28;20136;-50
2021/04/08 06:38:07;;;;;;;4.88;1.17;;;;;;;6.01;79.26;101413.69;5027899;28;20848;-48
2021/04/08 06:40:34;;;;;;;6.78;1.75;;;;;;;6.06;79.03;101421.84;5017362;28;20053;-48
2021/04/08 06:43:01;;;;;;;4.10;1.23;;;;;;;6.12;79.05;101423.38;5010217;28;20041;-48
2021/04/08 06:45:30;;;;;;;6.07;1.40;;;;;;;6.16;78.77;101420.88;4994409;28;20057;-46
2021/04/08 06:48:08;;;;;;;6.00;1.58;;;;;;;6.20;78.68;101421.88;5003504;28;20186;-46
2021/04/08 06:50:37;;;;;;;7.15;1.83;;;;;;;6.21;78.47;101418.03;4990350;28;20046;-48
2021/04/08 06:53:06;;;;;;;5.05;1.10;;;;;;;6.22;78.56;101415.00;4989897;28;20105;-46
2021/04/08 06:55:34;;;;;;;3.50;1.67;;;;;;;6.27;78.43;101417.66;4991503;28;20074;-47
2021/04/08 06:58:03;;;;;;;5.75;1.05;;;;;;;6.30;78.58;101419.78;4992911;28;20441;-47
2021/04/08 07:00:32;;;;;;;5.10;1.38;;;;;;;6.33;78.61;101419.19;4990551;28;20046;-45
2021/04/08 07:03:04;;;;;;;4.50;1.35;;;;;;;6.32;78.39;101409.34;4995189;28;20495;-47
2021/04/08 07:05:30;;;;;;;8.10;1.33;;;;;;;6.38;78.56;101407.31;4996669;28;20120;-46
2021/04/08 07:07:57;;;;;;;3.85;1.30;;;;;;;6.39;78.24;101404.25;4996762;28;20042;-50
2021/04/08 07:10:23;;;;;;;5.38;1.70;;;;;;;6.49;78.19;101419.75;4999775;28;20065;-44
2021/04/08 07:12:55;;;;;;;3.45;1.27;;;;;;;6.57;78.33;101399.81;5008096;28;20037;-45
2021/04/08 07:15:22;;;;;;;6.03;1.02;;;;;;;6.61;77.83;101401.66;4991421;28;20054;-46
2021/04/08 07:17:49;;;;;;;3.47;1.50;;;;;;;6.65;77.96;101402.69;4989705;28;20046;-47
2021/04/08 07:20:16;;;;;;;4.40;1.20;;;;;;;6.69;77.71;101403.72;4989953;28;20496;-46
2021/04/08 07:22:42;;;;;;;7.20;1.40;;;;;;;6.73;77.61;101404.72;4991006;28;20046;-48
2021/04/08 07:25:19;;;;;;;6.40;1.40;;;;;;;6.69;77.82;101403.72;4989307;28;20096;-51
2021/04/08 07:27:45;;;;;;;4.60;1.27;;;;;;;6.71;77.58;101395.97;4990739;28;20085;-48
2021/04/08 07:30:17;;;;;;;6.88;1.27;;;;;;;6.75;77.37;101390.69;4989926;28;20104;-45
2021/04/08 07:32:44;;;;;;;4.10;1.15;;;;;;;6.80;77.25;101379.59;4989968;28;20046;-49
2021/04/08 07:35:18;;;;;;;3.45;0.98;;;;;;;6.81;77.31;101388.63;4990358;28;20057;-47
2021/04/08 07:37:55;;;;;;;5.07;1.55;;;;;;;6.80;77.11;101381.50;4990075;28;20113;-47
2021/04/08 07:40:24;;;;;;;10.57;1.33;;;;;;;6.74;77.18;101392.63;4999257;28;20058;-46
2021/04/08 07:42:50;;;;;;;5.35;1.25;;;;;;;6.75;76.79;101383.22;4997328;28;20050;-49
2021/04/08 07:45:24;;;;;;;4.30;2.17;;;;;;;6.72;76.78;101383.81;4988596;28;20773;-50
2021/04/08 07:47:57;;;;;;;6.50;2.17;;;;;;;6.74;76.64;101384.38;5010018;28;20509;-45
2021/04/08 07:50:24;;;;;;;;;;;;;;;6.78;77.09;101381.00;5002404;28;20450;-47
2021/04/08 07:52:50;;;;;;;4.85;1.48;;;;;;;6.87;76.72;101379.16;5022556;28;20528;-51
2021/04/08 07:55:18;;;;;;;2.75;1.45;;;;;;;6.98;76.86;101372.34;5010811;28;20475;-44
2021/04/08 07:58:07;;;;;;;2.13;1.00;;;;;;;7.01;76.34;101372.56;5015030;28;20042;-46
2021/04/08 08:00:39;;;;;;;3.95;1.20;;;;;;;7.07;76.40;101363.03;5010091;28;20096;-47
2021/04/08 08:03:25;;;;;;;9.43;2.45;;;;;;;7.15;76.16;101356.00;5018311;28;20480;-51
2021/04/08 08:06:00;;;;;;;2.90;1.25;;;;;;;7.22;75.81;101367.44;5001784;28;20045;-47
2021/04/08 08:08:44;;;;;;;7.80;1.40;;;;;;;7.28;75.77;101360.72;5018669;28;20053;-47
2021/04/08 08:11:14;;;;;;;2.78;1.35;;;;;;;7.41;75.70;101353.53;5003237;28;20050;-47
2021/04/08 08:13:56;;;;;;;9.57;1.40;;;;;;;7.54;74.88;101348.00;5019968;28;20065;-47
2021/04/08 08:16:25;;;;;;;3.10;0.90;;;;;;;7.66;75.35;101356.53;5022566;28;20080;-46
2021/04/08 08:18:52;;;;;;;3.05;0.93;;;;;;;7.78;75.11;101345.75;5024230;28;20105;-47
2021/04/08 08:21:21;;;;;;;8.15;2.30;;;;;;;7.90;74.79;101340.53;5016387;28;20052;-48
2021/04/08 08:23:55;;;;;;;3.75;1.35;;;;;;;7.92;73.78;101342.94;5010712;28;20045;-50
2021/04/08 08:26:45;;;;;;;2.83;0.88;;;;;;;7.96;73.30;101341.22;5019518;28;20165;-47
2021/04/08 08:29:16;;;;;;;10.77;1.30;;;;;;;8.03;74.02;101333.31;5024062;28;20056;-48
2021/04/08 08:31:48;;;;;;;4.30;1.10;;;;;;;8.13;73.42;101332.25;5026943;28;20435;-46
2021/04/08 08:34:27;;;;;;;3.30;0.95;;;;;;;8.22;73.68;101341.38;5013080;28;20038;-49
2021/04/08 08:36:56;;;;;;;2.22;0.88;;;;;;;8.37;73.97;101338.25;5024753;28;20093;-46
2021/04/08 08:39:29;;;;;;;2.95;1.00;;;;;;;8.52;73.91;101343.38;5018657;28;20152;-47
2021/04/08 08:41:56;;;;;;;;;;;;;;;8.59;70.72;101335.47;5014527;28;20088;-52
2021/04/08 08:44:23;;;;;;;8.30;1.17;;;;;;;8.70;73.27;101339.56;5014700;28;19925;-46
2021/04/08 08:47:08;;;;;;;2.67;1.00;;;;;;;8.69;70.72;101334.34;4998468;28;20129;-47
2021/04/08 08:49:46;;;;;;;3.97;1.15;;;;;;;8.64;71.06;101337.25;4994869;28;20120;-49
2021/04/08 08:52:21;;;;;;;7.93;1.38;;;;;;;8.59;71.25;101324.41;5018767;28;20048;-46
2021/04/08 08:54:49;;;;;;;2.00;1.10;;;;;;;8.66;71.63;101315.69;5011213;28;20134;-46
2021/04/08 08:57:17;;;;;;;4.53;0.80;;;;;;;8.64;71.34;101316.00;5012932;28;20050;-50
2021/04/08 08:59:49;;;;;;;4.80;0.93;;;;;;;8.65;71.08;101317.63;5011942;28;20562;-49
2021/04/08 09:02:16;;;;;;;5.55;0.93;;;;;;;8.68;70.91;101319.75;5014781;28;20045;-50
2021/04/08 09:04:43;;;;;;;0.98;0.63;;;;;;;8.66;70.77;101324.75;5025684;28;20049;-46
2021/04/08 09:07:13;;;;;;;5.95;1.38;;;;;;;8.67;70.53;101320.88;5021630;28;20057;-46
2021/04/08 09:09:47;;;;;;;3.60;1.23;;;;;;;8.62;70.54;101312.75;5010826;28;20108;-46
2021/04/08 09:12:17;;;;;;;4.00;0.90;;;;;;;8.61;70.52;101310.28;5013653;28;20080;-46
2021/04/08 09:14:45;;;;;;;7.15;1.00;;;;;;;8.60;70.32;101308.69;5029255;28;20045;-47
2021/04/08 09:17:11;;;;;;;6.43;1.48;;;;;;;8.55;70.37;101301.38;5011305;28;20109;-47
2021/04/08 09:19:38;;;;;;;3.30;0.90;;;;;;;8.59;70.53;101305.09;5004947;28;20144;-48
2021/04/08 09:22:11;;;;;;;2.92;1.35;;;;;;;8.63;70.04;101302.53;5021569;28;20073;-50
2021/04/08 09:24:47;;;;;;;3.75;0.95;;;;;;;8.63;70.27;101303.31;5013022;28;20077;-47
2021/04/08 09:27:21;;;;;;;5.90;1.00;;;;;;;8.70;70.16;101298.16;5017773;28;20053;-48
2021/04/08 09:29:58;;;;;;;2.35;1.20;;;;;;;8.65;70.29;101284.50;5026652;28;20045;-47
2021/04/08 09:32:33;;;;;;;5.35;1.52;;;;;;;8.58;69.98;101289.66;5024140;28;20053;-48
2021/04/08 09:35:08;;;;;;;10.35;3.03;;;;;;;8.59;70.14;101283.03;5011953;28;20038;-46
2021/04/08 09:37:51;;;;;;;3.40;1.00;;;;;;;8.64;69.96;101274.59;5012017;28;20061;-49
2021/04/08 09:40:28;;;;;;;3.13;1.08;;;;;;;8.64;69.69;101265.50;5012025;28;20045;-48
2021/04/08 09:42:57;;;;;;;3.55;1.45;;;;;;;8.73;69.91;101286.50;5021250;28;20560;-46
2021/04/08 09:45:24;;;;;;;1.42;0.90;;;;;;;8.72;69.40;101273.00;5022913;28;20081;-47
2021/04/08 09:48:16;;;;;;;2.35;1.05;;;;;;;8.73;68.70;101261.66;5025821;28;20045;-47
2021/04/08 09:50:56;;;;;;;6.10;1.30;;;;;;;8.78;68.45;101260.69;5011901;28;20065;-48
2021/04/08 09:53:26;;;;;;;4.32;1.67;;;;;;;8.77;68.71;101248.81;5000446;28;20038;-50
2021/04/08 09:55:57;;;;;;;5.68;1.60;;;;;;;8.75;68.98;101245.56;5009881;28;20073;-51
2021/04/08 09:58:26;;;;;;;3.35;1.20;;;;;;;8.78;68.85;101253.22;5014430;28;20046;-51
2021/04/08 10:00:55;;;;;;;10.60;1.83;;;;;;;8.80;68.68;101242.66;5021550;28;20087;-49
2021/04/08 10:03:34;;;;;;;4.95;0.90;;;;;;;8.77;68.21;101237.78;5012326;28;20050;-51
2021/04/08 10:06:19;;;;;;;5.07;1.17;;;;;;;8.79;68.11;101235.50;4997480;28;20042;-51
2021/04/08 10:08:46;;;;;;;6.63;1.33;;;;;;;8.78;68.54;101239.41;5017164;28;20100;-50
2021/04/08 10:11:25;;;;;;;1.85;0.80;;;;;;;8.77;68.33;101232.25;5019626;28;20099;-46
2021/04/08 10:13:54;;;;;;;4.28;1.70;;;;;;;8.73;68.69;101242.31;5006150;28;20050;-47
2021/04/08 10:16:23;;;;;;;5.18;1.50;;;;;;;8.69;68.47;101241.31;4991791;28;20496;-48
2021/04/08 10:19:00;;;;;;;1.30;1.20;;;;;;;8.59;68.63;101230.59;5004815;28;20556;-50
2021/04/08 10:21:28;;;;;;;3.33;1.42;;;;;;;8.55;68.64;101235.91;5003269;28;20568;-46
2021/04/08 10:23:57;;;;;;;2.67;0.82;;;;;;;8.48;68.65;101229.25;5011061;28;20045;-49
2021/04/08 10:26:29;;;;;;;3.97;1.40;;;;;;;8.40;68.52;101227.25;4992413;28;20507;-47
2021/04/08 10:28:58;;;;;;;6.32;1.35;;;;;;;8.35;68.50;101221.88;5009137;28;20053;-49
2021/04/08 10:31:30;;;;;;;4.75;1.23;;;;;;;8.34;68.56;101214.75;5017571;28;20048;-49
2021/04/08 10:34:08;;;;;;;2.83;0.90;;;;;;;8.30;68.14;101208.25;5013742;28;20054;-48
2021/04/08 10:36:42;;;;;;;2.63;1.40;;;;;;;8.27;68.21;101211.63;5009563;28;20056;-49
2021/04/08 10:39:11;;;;;;;1.85;1.20;;;;;;;8.32;68.38;101211.50;5008977;28;20069;-50
2021/04/08 10:41:39;;;;;;;3.28;1.65;;;;;;;8.37;68.24;101208.59;5013665;28;20049;-52
2021/04/08 10:44:25;;;;;;;2.60;1.45;;;;;;;8.44;68.05;101217.22;5008110;28;20117;-48
2021/04/08 10:46:55;;;;;;;2.67;1.15;;;;;;;8.49;67.93;101198.59;5015429;28;20120;-50
2021/04/08 10:49:29;;;;;;;1.55;1.23;;;;;;;8.51;67.76;101198.25;4993418;28;20578;-51
2021/04/08 10:51:57;;;;;;;4.55;1.60;;;;;;;8.59;68.07;101194.69;5003922;28;20046;-50
2021/04/08 10:54:30;;;;;;;3.90;1.40;;;;;;;8.63;67.52;101187.38;4994682;28;20104;-46
2021/04/08 10:56:59;;;;;;;3.60;1.70;;;;;;;8.72;67.45;101204.81;4995358;28;20097;-50
2021/04/08 10:59:26;;;;;;;4.63;1.38;;;;;;;8.78;67.29;101199.94;4997963;28;20043;-50
2021/04/08 11:01:54;;;;;;;5.15;1.30;;;;;;;8.85;67.37;101194.75;4991619;28;20089;-50
2021/04/08 11:04:23;;;;;;;9.43;1.50;;;;;;;8.84;67.21;101193.13;4997048;28;20077;-48
2021/04/08 11:06:52;;;;;;;3.20;1.48;;;;;;;8.87;67.17;101187.75;5007890;28;20069;-50
2021/04/08 11:09:27;;;;;;;3.33;2.00;;;;;;;8.94;66.72;101182.59;5004409;28;20046;-47
2021/04/08 11:11:55;;;;;;;3.95;1.67;;;;;;;8.97;66.91;101181.94;4988353;28;20057;-50
2021/04/08 11:14:27;;;;;;;1.60;1.27;;;;;;;9.06;66.87;101182.75;4975962;28;20042;-47
2021/04/08 11:16:56;;;;;;;5.22;2.58;;;;;;;9.13;66.68;101174.78;4992537;28;20121;-49
2021/04/08 11:19:24;;;;;;;3.92;1.60;;;;;;;9.24;66.63;101171.72;4988366;28;20089;-51
2021/04/08 11:21:51;;;;;;;2.83;0.90;;;;;;;9.31;66.07;101159.03;4989164;28;20034;-49
2021/04/08 11:24:17;;;;;;;3.53;1.10;;;;;;;9.41;65.39;101160.63;4991694;28;20085;-47
2021/04/08 11:26:48;;;;;;;2.13;0.60;;;;;;;9.43;63.80;101155.59;5007724;28;20753;-47
2021/04/08 11:29:20;;;;;;;3.55;0.80;;;;;;;9.53;63.19;101158.03;4974129;28;20559;-48
2021/04/08 11:32:08;;;;;;;1.85;0.85;;;;;;;9.63;62.19;101160.44;4996048;28;20046;-47
2021/04/08 11:34:52;;;;;;;0.70;0.52;;;;;;;9.66;62.04;101152.28;4978758;28;20107;-46
2021/04/08 11:37:31;;;;;;;1.15;0.88;;;;;;;9.72;62.88;101155.69;5007357;28;20189;-52
2021/04/08 11:39:59;;;;;;;4.72;0.90;;;;;;;9.68;62.75;101152.78;5007407;28;20046;-48
2021/04/08 11:42:35;;;;;;;1.85;0.70;;;;;;;9.69;62.01;101139.75;4976580;28;20085;-50
2021/04/08 11:45:25;;;;;;;1.95;0.80;;;;;;;9.70;61.52;101142.22;4995896;28;20061;-51
2021/04/08 11:48:03;;;;;;;1.92;0.73;;;;;;;9.65;61.54;101158.16;4981597;28;20140;-47